Martha's Vineyard, MA

5:30 AM EDT on August 30, 2016 (GMT -0400)
Martha's Vineyard | | Change Station

Elev 69 ft 41.39 °N, 70.61 °W | Updated 37 minutes ago

Clear
Clear
55 °F
Feels Like 55 °F
N
7
Wind Variable Wind from North

Today
High -- | Low -- °F
--% Chance of Precip.
Yesterday
High -- | Low -- °F
Precip. -- in
Pressure 30.14 in
Visibility 10.0 miles
Clouds Clear
Dew Point 53 °F
Humidity 93%
Rainfall 0.00 in
Snow Depth Not available.
6:07 AM 7:17 PM
Waning Crescent, 4% visible
METAR KMVY 300853Z AUTO 36006KT 10SM CLR 13/12 A3014 RMK AO2 SLP204 T01280117 58002 $
Pressure 30.14 in
Visibility 10.0 miles
Clouds Clear
Dew Point 53 °F
Humidity 93%
Rainfall 0.00 in
Snow Depth Not available.
6:07 AM 7:17 PM
Waning Crescent, 4% visible
METAR KMVY 300853Z AUTO 36006KT 10SM CLR 13/12 A3014 RMK AO2 SLP204 T01280117 58002 $

10-Day Weather Forecast

Almanac

Astronomy

Aug. 30, 2016 Rise Set
Actual Time
Civil Twilight
Nautical Twilight
Astronomical Twilight
Moon
Length of Visible Light
Length of Day
Tomorrow will be .
, % of the Moon is Illuminated

Today's Extremes

State Highs State Lows

Community

WunderPhotos

Upload Photos

1,935,795 photos uploaded!

WunderBlog® & News

Nearby

Air Quality

  Air Quality AQ Index Pollutant
Not available.

Snow Depth

Station Depth Elevation

Earthquake Activity

City Distance Mag. Time & Date
Minimum magnitude displayed is 2.5.

Coastal Water Temperatures

Place Temperature

Stations

Nearby Weather Stations

Station Location Temp. Windchill Dew Point Humidity Wind Precip. Elev Updated Type
                   

Watches & Warnings

There are currently no watches in effect.